sensor_id;sensor_type;location;lat;lon;timestamp;pressure;altitude;pressure_sealevel;temperature;humidity
64841;BME280;51307;52.162;7.560;2023-05-10T00:00:31;100216.34;;;15.83;65.53
64841;BME280;51307;52.162;7.560;2023-05-10T00:02:57;100211.13;;;15.88;65.26
64841;BME280;51307;52.162;7.560;2023-05-10T00:05:22;100206.38;;;15.70;66.03
64841;BME280;51307;52.162;7.560;2023-05-10T00:07:48;100205.75;;;15.68;65.91
64841;BME280;51307;52.162;7.560;2023-05-10T00:10:13;100204.69;;;15.82;65.41
64841;BME280;51307;52.162;7.560;2023-05-10T00:12:39;100198.06;;;15.85;65.51
64841;BME280;51307;52.162;7.560;2023-05-10T00:15:05;100195.59;;;15.56;66.38
64841;BME280;51307;52.162;7.560;2023-05-10T00:17:30;100202.03;;;15.55;66.69
64841;BME280;51307;52.162;7.560;2023-05-10T00:19:56;100195.38;;;15.71;65.98
64841;BME280;51307;52.162;7.560;2023-05-10T00:22:21;100195.16;;;15.39;66.62
64841;BME280;51307;52.162;7.560;2023-05-10T00:24:47;100192.28;;;15.41;67.04
64841;BME280;51307;52.162;7.560;2023-05-10T00:27:13;100197.22;;;15.37;67.32
64841;BME280;51307;52.162;7.560;2023-05-10T00:29:38;100195.13;;;15.26;67.31
64841;BME280;51307;52.162;7.560;2023-05-10T00:32:04;100194.75;;;15.36;67.28
64841;BME280;51307;52.162;7.560;2023-05-10T00:34:29;100198.03;;;15.31;67.33
64841;BME280;51307;52.162;7.560;2023-05-10T00:36:55;100187.25;;;15.31;67.55
64841;BME280;51307;52.162;7.560;2023-05-10T00:39:21;100185.00;;;15.75;66.06
64841;BME280;51307;52.162;7.560;2023-05-10T00:41:46;100185.78;;;15.15;67.88
64841;BME280;51307;52.162;7.560;2023-05-10T00:44:12;100186.41;;;15.10;66.93
64841;BME280;51307;52.162;7.560;2023-05-10T00:46:37;100184.16;;;15.14;66.69
64841;BME280;51307;52.162;7.560;2023-05-10T00:49:03;100181.00;;;14.97;67.59
64841;BME280;51307;52.162;7.560;2023-05-10T00:51:30;100187.38;;;14.83;67.65
64841;BME280;51307;52.162;7.560;2023-05-10T00:53:56;100184.44;;;14.71;68.22
64841;BME280;51307;52.162;7.560;2023-05-10T00:56:22;100181.66;;;14.99;67.59
64841;BME280;51307;52.162;7.560;2023-05-10T00:58:50;100178.94;;;14.86;67.18
64841;BME280;51307;52.162;7.560;2023-05-10T01:01:15;100184.00;;;14.54;67.94
64841;BME280;51307;52.162;7.560;2023-05-10T01:03:41;100183.34;;;14.52;68.00
64841;BME280;51307;52.162;7.560;2023-05-10T01:06:07;100178.78;;;14.45;68.30
64841;BME280;51307;52.162;7.560;2023-05-10T01:08:33;100179.63;;;14.53;68.34
64841;BME280;51307;52.162;7.560;2023-05-10T01:10:59;100176.06;;;14.39;68.74
64841;BME280;51307;52.162;7.560;2023-05-10T01:13:36;100184.16;;;14.39;68.66
64841;BME280;51307;52.162;7.560;2023-05-10T01:16:03;100181.13;;;14.20;69.32
64841;BME280;51307;52.162;7.560;2023-05-10T01:18:40;100189.34;;;14.47;68.44
64841;BME280;51307;52.162;7.560;2023-05-10T01:21:30;100188.91;;;14.43;68.59
64841;BME280;51307;52.162;7.560;2023-05-10T01:33:09;100192.59;;;14.36;68.74
64841;BME280;51307;52.162;7.560;2023-05-10T01:35:40;100194.34;;;14.57;68.22
64841;BME280;51307;52.162;7.560;2023-05-10T01:43:52;100222.06;;;14.16;68.77
64841;BME280;51307;52.162;7.560;2023-05-10T01:46:27;100224.88;;;14.01;68.02
64841;BME280;51307;52.162;7.560;2023-05-10T01:48:57;100220.44;;;14.15;67.59
64841;BME280;51307;52.162;7.560;2023-05-10T01:51:25;100228.78;;;13.70;68.10
64841;BME280;51307;52.162;7.560;2023-05-10T01:53:59;100221.78;;;13.69;68.15
64841;BME280;51307;52.162;7.560;2023-05-10T01:56:29;100226.34;;;13.75;68.04
64841;BME280;51307;52.162;7.560;2023-05-10T01:58:58;100224.25;;;13.70;67.92
64841;BME280;51307;52.162;7.560;2023-05-10T02:01:27;100220.31;;;13.66;67.72
64841;BME280;51307;52.162;7.560;2023-05-10T02:03:55;100229.00;;;13.47;68.44
64841;BME280;51307;52.162;7.560;2023-05-10T02:06:22;100219.53;;;13.51;67.33
64841;BME280;51307;52.162;7.560;2023-05-10T02:08:51;100212.63;;;13.41;67.75
64841;BME280;51307;52.162;7.560;2023-05-10T02:11:19;100227.84;;;13.56;68.17
64841;BME280;51307;52.162;7.560;2023-05-10T02:13:49;100226.97;;;13.49;67.95
64841;BME280;51307;52.162;7.560;2023-05-10T02:16:17;100223.91;;;13.30;68.52
64841;BME280;51307;52.162;7.560;2023-05-10T02:18:46;100235.19;;;13.40;68.39
64841;BME280;51307;52.162;7.560;2023-05-10T02:21:15;100235.88;;;13.27;68.59
64841;BME280;51307;52.162;7.560;2023-05-10T02:23:42;100239.63;;;13.33;68.87
64841;BME280;51307;52.162;7.560;2023-05-10T02:26:09;100238.09;;;13.45;68.18
64841;BME280;51307;52.162;7.560;2023-05-10T02:28:36;100240.91;;;13.37;68.70
64841;BME280;51307;52.162;7.560;2023-05-10T02:31:03;100240.50;;;13.34;69.06
64841;BME280;51307;52.162;7.560;2023-05-10T02:33:32;100254.47;;;13.29;68.71
64841;BME280;51307;52.162;7.560;2023-05-10T02:35:59;100253.19;;;13.47;67.81
64841;BME280;51307;52.162;7.560;2023-05-10T02:38:27;100242.06;;;13.50;67.78
64841;BME280;51307;52.162;7.560;2023-05-10T02:40:54;100252.19;;;13.48;68.32
64841;BME280;51307;52.162;7.560;2023-05-10T02:43:22;100250.91;;;13.43;68.37
64841;BME280;51307;52.162;7.560;2023-05-10T02:45:48;100258.19;;;13.71;67.46
64841;BME280;51307;52.162;7.560;2023-05-10T02:48:15;100245.91;;;13.62;67.58
64841;BME280;51307;52.162;7.560;2023-05-10T02:50:44;100257.69;;;13.39;68.50
64841;BME280;51307;52.162;7.560;2023-05-10T02:53:15;100255.75;;;13.55;67.67
64841;BME280;51307;52.162;7.560;2023-05-10T02:55:49;100255.13;;;13.53;68.29
64841;BME280;51307;52.162;7.560;2023-05-10T02:58:16;100249.88;;;13.66;67.89
64841;BME280;51307;52.162;7.560;2023-05-10T03:00:43;100257.09;;;13.44;68.36
64841;BME280;51307;52.162;7.560;2023-05-10T03:03:09;100251.28;;;13.19;68.74
64841;BME280;51307;52.162;7.560;2023-05-10T03:05:34;100247.50;;;13.35;68.15
64841;BME280;51307;52.162;7.560;2023-05-10T03:08:00;100253.31;;;13.60;67.79
64841;BME280;51307;52.162;7.560;2023-05-10T03:10:31;100250.91;;;13.43;68.16
64841;BME280;51307;52.162;7.560;2023-05-10T03:21:11;100257.94;;;13.44;67.76
64841;BME280;51307;52.162;7.560;2023-05-10T03:26:38;100258.72;;;13.38;67.82
64841;BME280;51307;52.162;7.560;2023-05-10T03:29:06;100254.16;;;13.39;67.97
64841;BME280;51307;52.162;7.560;2023-05-10T03:31:32;100262.81;;;13.34;67.91
64841;BME280;51307;52.162;7.560;2023-05-10T03:33:58;100265.09;;;13.59;67.20
64841;BME280;51307;52.162;7.560;2023-05-10T03:36:23;100268.63;;;13.38;67.19
64841;BME280;51307;52.162;7.560;2023-05-10T03:38:49;100266.38;;;13.20;67.84
64841;BME280;51307;52.162;7.560;2023-05-10T03:41:14;100275.22;;;13.35;67.45
64841;BME280;51307;52.162;7.560;2023-05-10T03:43:40;100270.47;;;13.37;67.37
64841;BME280;51307;52.162;7.560;2023-05-10T03:46:06;100266.00;;;13.23;67.55
64841;BME280;51307;52.162;7.560;2023-05-10T03:48:32;100279.00;;;13.41;67.15
64841;BME280;51307;52.162;7.560;2023-05-10T03:50:58;100282.19;;;13.73;66.53
64841;BME280;51307;52.162;7.560;2023-05-10T03:53:24;100278.09;;;13.55;66.88
64841;BME280;51307;52.162;7.560;2023-05-10T03:55:49;100287.88;;;13.41;66.95
64841;BME280;51307;52.162;7.560;2023-05-10T03:58:15;100289.75;;;13.41;67.37
64841;BME280;51307;52.162;7.560;2023-05-10T04:00:40;100285.91;;;13.28;67.71
64841;BME280;51307;52.162;7.560;2023-05-10T04:03:14;100294.44;;;13.54;67.05
64841;BME280;51307;52.162;7.560;2023-05-10T04:05:39;100290.00;;;13.24;67.78
64841;BME280;51307;52.162;7.560;2023-05-10T04:08:05;100295.56;;;13.44;67.36
64841;BME280;51307;52.162;7.560;2023-05-10T04:10:32;100292.44;;;13.41;67.62
64841;BME280;51307;52.162;7.560;2023-05-10T04:12:57;100291.69;;;13.32;67.70
64841;BME280;51307;52.162;7.560;2023-05-10T04:15:23;100297.13;;;13.54;66.72
64841;BME280;51307;52.162;7.560;2023-05-10T04:17:50;100302.22;;;13.12;68.57
64841;BME280;51307;52.162;7.560;2023-05-10T04:20:15;100312.44;;;13.38;67.59
64841;BME280;51307;52.162;7.560;2023-05-10T04:22:41;100304.25;;;13.25;67.69
64841;BME280;51307;52.162;7.560;2023-05-10T04:25:07;100303.09;;;13.34;67.78
64841;BME280;51307;52.162;7.560;2023-05-10T04:27:33;100307.00;;;13.32;67.83
64841;BME280;51307;52.162;7.560;2023-05-10T04:29:58;100308.16;;;13.44;67.75
64841;BME280;51307;52.162;7.560;2023-05-10T04:32:24;100312.78;;;13.72;66.87
64841;BME280;51307;52.162;7.560;2023-05-10T04:34:49;100308.81;;;13.46;67.39
64841;BME280;51307;52.162;7.560;2023-05-10T04:37:16;100304.50;;;13.30;67.84
64841;BME280;51307;52.162;7.560;2023-05-10T04:39:42;100310.41;;;13.19;68.57
64841;BME280;51307;52.162;7.560;2023-05-10T04:42:07;100307.72;;;13.62;67.47
64841;BME280;51307;52.162;7.560;2023-05-10T04:44:33;100305.88;;;13.41;67.60
64841;BME280;51307;52.162;7.560;2023-05-10T04:46:59;100306.06;;;13.61;67.06
64841;BME280;51307;52.162;7.560;2023-05-10T04:49:24;100309.00;;;13.23;68.05
64841;BME280;51307;52.162;7.560;2023-05-10T04:51:50;100311.47;;;13.24;68.08
64841;BME280;51307;52.162;7.560;2023-05-10T04:54:15;100315.25;;;13.30;67.55
64841;BME280;51307;52.162;7.560;2023-05-10T04:56:41;100314.31;;;13.59;67.10
64841;BME280;51307;52.162;7.560;2023-05-10T04:59:09;100319.16;;;13.49;67.53
64841;BME280;51307;52.162;7.560;2023-05-10T05:01:35;100333.00;;;13.46;67.41
64841;BME280;51307;52.162;7.560;2023-05-10T05:04:00;100324.69;;;13.62;67.13
64841;BME280;51307;52.162;7.560;2023-05-10T05:06:26;100325.69;;;13.83;66.20
64841;BME280;51307;52.162;7.560;2023-05-10T05:08:52;100336.38;;;13.76;66.92
64841;BME280;51307;52.162;7.560;2023-05-10T05:11:18;100331.25;;;13.82;66.85
64841;BME280;51307;52.162;7.560;2023-05-10T05:13:43;100334.97;;;13.59;67.52
64841;BME280;51307;52.162;7.560;2023-05-10T05:16:09;100335.38;;;13.56;67.63
64841;BME280;51307;52.162;7.560;2023-05-10T05:18:36;100342.63;;;13.55;67.60
64841;BME280;51307;52.162;7.560;2023-05-10T05:21:01;100338.50;;;13.81;67.00
64841;BME280;51307;52.162;7.560;2023-05-10T05:23:26;100347.59;;;13.58;67.23
64841;BME280;51307;52.162;7.560;2023-05-10T05:25:53;100350.16;;;13.88;66.69
64841;BME280;51307;52.162;7.560;2023-05-10T05:28:19;100347.66;;;13.87;66.92
64841;BME280;51307;52.162;7.560;2023-05-10T05:30:45;100349.38;;;13.94;66.93
64841;BME280;51307;52.162;7.560;2023-05-10T05:33:10;100351.22;;;13.94;67.42
64841;BME280;51307;52.162;7.560;2023-05-10T05:35:36;100347.00;;;14.06;66.46
64841;BME280;51307;52.162;7.560;2023-05-10T05:38:02;100346.38;;;13.83;67.36
64841;BME280;51307;52.162;7.560;2023-05-10T05:40:27;100351.47;;;13.99;67.01
64841;BME280;51307;52.162;7.560;2023-05-10T05:42:53;100356.56;;;14.16;66.50
64841;BME280;51307;52.162;7.560;2023-05-10T05:45:18;100363.81;;;14.37;65.96
64841;BME280;51307;52.162;7.560;2023-05-10T05:47:44;100357.47;;;14.23;66.44
64841;BME280;51307;52.162;7.560;2023-05-10T05:50:10;100358.97;;;14.54;65.51
64841;BME280;51307;52.162;7.560;2023-05-10T05:52:35;100372.16;;;14.20;66.09
64841;BME280;51307;52.162;7.560;2023-05-10T05:55:01;100359.91;;;14.39;65.85
64841;BME280;51307;52.162;7.560;2023-05-10T05:57:26;100369.91;;;14.45;66.05
64841;BME280;51307;52.162;7.560;2023-05-10T05:59:52;100369.72;;;14.25;67.04
64841;BME280;51307;52.162;7.560;2023-05-10T06:02:17;100366.53;;;14.15;66.96
64841;BME280;51307;52.162;7.560;2023-05-10T06:04:43;100364.56;;;14.52;65.94
64841;BME280;51307;52.162;7.560;2023-05-10T06:07:08;100370.06;;;14.37;66.65
64841;BME280;51307;52.162;7.560;2023-05-10T06:09:34;100371.47;;;13.90;67.94
64841;BME280;51307;52.162;7.560;2023-05-10T06:11:59;100375.53;;;14.29;67.11
64841;BME280;51307;52.162;7.560;2023-05-10T06:14:25;100375.06;;;13.75;68.15
64841;BME280;51307;52.162;7.560;2023-05-10T06:16:50;100378.75;;;14.18;67.40
64841;BME280;51307;52.162;7.560;2023-05-10T06:19:16;100373.59;;;14.44;66.39
64841;BME280;51307;52.162;7.560;2023-05-10T06:21:41;100379.19;;;14.43;66.63
64841;BME280;51307;52.162;7.560;2023-05-10T06:24:07;100385.59;;;14.20;66.97
64841;BME280;51307;52.162;7.560;2023-05-10T06:26:33;100390.41;;;14.25;66.95
64841;BME280;51307;52.162;7.560;2023-05-10T06:28:58;100389.66;;;14.31;66.75
64841;BME280;51307;52.162;7.560;2023-05-10T06:31:24;100390.47;;;14.10;67.59
64841;BME280;51307;52.162;7.560;2023-05-10T06:33:49;100386.00;;;14.17;67.84
64841;BME280;51307;52.162;7.560;2023-05-10T06:36:15;100393.09;;;14.25;67.32
64841;BME280;51307;52.162;7.560;2023-05-10T06:38:40;100386.31;;;14.07;68.02
64841;BME280;51307;52.162;7.560;2023-05-10T06:41:06;100400.56;;;13.79;68.36
64841;BME280;51307;52.162;7.560;2023-05-10T06:43:31;100399.91;;;13.99;68.12
64841;BME280;51307;52.162;7.560;2023-05-10T06:45:57;100405.50;;;14.26;67.71
64841;BME280;51307;52.162;7.560;2023-05-10T06:48:23;100407.69;;;14.31;67.29
64841;BME280;51307;52.162;7.560;2023-05-10T06:50:48;100406.41;;;14.11;67.35
64841;BME280;51307;52.162;7.560;2023-05-10T06:53:14;100421.41;;;13.99;67.91
64841;BME280;51307;52.162;7.560;2023-05-10T06:55:40;100418.84;;;14.12;67.82
64841;BME280;51307;52.162;7.560;2023-05-10T06:58:05;100418.31;;;13.81;68.29
64841;BME280;51307;52.162;7.560;2023-05-10T07:00:31;100397.72;;;14.09;67.19
64841;BME280;51307;52.162;7.560;2023-05-10T07:02:57;100407.72;;;13.94;68.46
64841;BME280;51307;52.162;7.560;2023-05-10T07:05:22;100406.75;;;14.02;67.70
64841;BME280;51307;52.162;7.560;2023-05-10T07:07:48;100407.84;;;14.07;67.89
64841;BME280;51307;52.162;7.560;2023-05-10T07:10:13;100413.53;;;13.98;68.11
64841;BME280;51307;52.162;7.560;2023-05-10T07:12:39;100405.66;;;14.18;67.24
64841;BME280;51307;52.162;7.560;2023-05-10T07:15:05;100416.09;;;13.84;68.32
64841;BME280;51307;52.162;7.560;2023-05-10T07:17:30;100415.56;;;14.32;67.49
64841;BME280;51307;52.162;7.560;2023-05-10T07:19:56;100415.75;;;14.31;67.28
64841;BME280;51307;52.162;7.560;2023-05-10T07:22:21;100423.97;;;14.29;67.08
64841;BME280;51307;52.162;7.560;2023-05-10T07:24:47;100425.91;;;14.13;67.60
64841;BME280;51307;52.162;7.560;2023-05-10T07:27:12;100431.97;;;14.22;67.08
64841;BME280;51307;52.162;7.560;2023-05-10T07:29:38;100431.91;;;14.16;67.15
64841;BME280;51307;52.162;7.560;2023-05-10T07:32:04;100432.44;;;14.04;67.38
64841;BME280;51307;52.162;7.560;2023-05-10T07:34:30;100433.28;;;14.26;67.47
64841;BME280;51307;52.162;7.560;2023-05-10T07:37:00;100423.97;;;14.29;66.94
64841;BME280;51307;52.162;7.560;2023-05-10T07:39:27;100425.38;;;14.46;66.01
64841;BME280;51307;52.162;7.560;2023-05-10T07:41:52;100436.13;;;14.25;66.92
64841;BME280;51307;52.162;7.560;2023-05-10T07:44:18;100434.31;;;14.47;65.83
64841;BME280;51307;52.162;7.560;2023-05-10T07:46:44;100437.41;;;14.07;67.10
64841;BME280;51307;52.162;7.560;2023-05-10T07:49:09;100435.91;;;14.41;66.77
64841;BME280;51307;52.162;7.560;2023-05-10T07:51:35;100441.53;;;14.46;66.91
64841;BME280;51307;52.162;7.560;2023-05-10T07:54:00;100446.53;;;14.50;66.24
64841;BME280;51307;52.162;7.560;2023-05-10T07:56:31;100447.94;;;14.02;67.56
64841;BME280;51307;52.162;7.560;2023-05-10T07:59:02;100452.28;;;14.68;65.75
64841;BME280;51307;52.162;7.560;2023-05-10T08:01:33;100453.66;;;14.64;66.06
64841;BME280;51307;52.162;7.560;2023-05-10T08:03:58;100453.53;;;14.44;66.74
64841;BME280;51307;52.162;7.560;2023-05-10T08:06:25;100457.56;;;14.55;66.28
64841;BME280;51307;52.162;7.560;2023-05-10T08:08:52;100461.34;;;14.39;66.68
64841;BME280;51307;52.162;7.560;2023-05-10T08:11:22;100462.31;;;14.31;65.84
64841;BME280;51307;52.162;7.560;2023-05-10T08:13:49;100462.41;;;14.66;65.91
64841;BME280;51307;52.162;7.560;2023-05-10T08:16:16;100452.44;;;14.67;64.79
64841;BME280;51307;52.162;7.560;2023-05-10T08:18:43;100464.25;;;14.37;65.50
64841;BME280;51307;52.162;7.560;2023-05-10T08:21:09;100458.97;;;14.79;65.23
64841;BME280;51307;52.162;7.560;2023-05-10T08:23:36;100462.91;;;14.76;65.36
64841;BME280;51307;52.162;7.560;2023-05-10T08:26:02;100470.63;;;14.86;64.73
64841;BME280;51307;52.162;7.560;2023-05-10T08:28:27;100479.88;;;14.49;64.93
64841;BME280;51307;52.162;7.560;2023-05-10T08:30:53;100463.53;;;14.78;64.73
64841;BME280;51307;52.162;7.560;2023-05-10T08:33:18;100475.25;;;14.71;64.46
64841;BME280;51307;52.162;7.560;2023-05-10T08:35:44;100468.78;;;14.93;64.31
64841;BME280;51307;52.162;7.560;2023-05-10T08:38:09;100482.63;;;14.84;64.48
64841;BME280;51307;52.162;7.560;2023-05-10T08:40:37;100484.50;;;14.83;64.36
64841;BME280;51307;52.162;7.560;2023-05-10T08:43:08;100482.41;;;14.85;64.05
64841;BME280;51307;52.162;7.560;2023-05-10T08:45:39;100484.88;;;14.80;64.12
64841;BME280;51307;52.162;7.560;2023-05-10T08:48:06;100487.03;;;14.63;64.79
64841;BME280;51307;52.162;7.560;2023-05-10T08:50:35;100491.31;;;14.79;64.59
64841;BME280;51307;52.162;7.560;2023-05-10T08:53:04;100487.97;;;14.77;64.56
64841;BME280;51307;52.162;7.560;2023-05-10T08:55:32;100484.81;;;15.02;64.30
64841;BME280;51307;52.162;7.560;2023-05-10T08:57:59;100480.78;;;14.91;64.14
64841;BME280;51307;52.162;7.560;2023-05-10T09:00:26;100494.03;;;14.86;64.68
64841;BME280;51307;52.162;7.560;2023-05-10T09:02:51;100489.69;;;14.85;64.55
64841;BME280;51307;52.162;7.560;2023-05-10T09:05:17;100493.03;;;14.93;64.75
64841;BME280;51307;52.162;7.560;2023-05-10T09:07:43;100497.06;;;14.76;65.52
64841;BME280;51307;52.162;7.560;2023-05-10T09:10:10;100501.38;;;14.99;64.55
64841;BME280;51307;52.162;7.560;2023-05-10T09:12:36;100503.25;;;15.33;63.74
64841;BME280;51307;52.162;7.560;2023-05-10T09:15:03;100506.91;;;14.90;64.10
64841;BME280;51307;52.162;7.560;2023-05-10T09:17:31;100503.81;;;14.93;63.81
64841;BME280;51307;52.162;7.560;2023-05-10T09:19:58;100509.34;;;15.13;63.79
64841;BME280;51307;52.162;7.560;2023-05-10T09:22:24;100511.59;;;14.82;64.43
64841;BME280;51307;52.162;7.560;2023-05-10T09:25:09;100518.97;;;14.94;63.83
64841;BME280;51307;52.162;7.560;2023-05-10T09:27:38;100515.19;;;14.89;64.19
64841;BME280;51307;52.162;7.560;2023-05-10T09:30:04;100516.31;;;15.01;63.86
64841;BME280;51307;52.162;7.560;2023-05-10T09:32:41;100517.38;;;14.78;64.56
64841;BME280;51307;52.162;7.560;2023-05-10T09:35:09;100523.66;;;14.86;65.26
64841;BME280;51307;52.162;7.560;2023-05-10T09:37:34;100526.16;;;14.87;65.29
64841;BME280;51307;52.162;7.560;2023-05-10T09:40:00;100521.94;;;15.06;64.55
64841;BME280;51307;52.162;7.560;2023-05-10T09:42:25;100531.19;;;14.97;65.30
64841;BME280;51307;52.162;7.560;2023-05-10T09:44:51;100523.31;;;14.95;63.88
64841;BME280;51307;52.162;7.560;2023-05-10T09:47:17;100528.00;;;14.87;63.75
64841;BME280;51307;52.162;7.560;2023-05-10T09:49:48;100533.22;;;14.67;63.35
64841;BME280;51307;52.162;7.560;2023-05-10T09:52:14;100531.03;;;14.77;62.37
64841;BME280;51307;52.162;7.560;2023-05-10T09:54:52;100539.94;;;14.99;62.42
64841;BME280;51307;52.162;7.560;2023-05-10T09:57:21;100538.66;;;15.30;62.24
64841;BME280;51307;52.162;7.560;2023-05-10T09:59:47;100536.53;;;15.19;62.23
64841;BME280;51307;52.162;7.560;2023-05-10T10:02:13;100543.19;;;15.23;62.23
64841;BME280;51307;52.162;7.560;2023-05-10T10:04:40;100540.84;;;15.41;61.48
64841;BME280;51307;52.162;7.560;2023-05-10T10:07:06;100546.03;;;15.15;62.46
64841;BME280;51307;52.162;7.560;2023-05-10T10:09:33;100543.44;;;15.28;62.06
64841;BME280;51307;52.162;7.560;2023-05-10T10:12:00;100544.63;;;15.19;61.73
64841;BME280;51307;52.162;7.560;2023-05-10T10:14:26;100546.78;;;15.37;61.69
64841;BME280;51307;52.162;7.560;2023-05-10T10:16:53;100542.69;;;14.84;62.43
64841;BME280;51307;52.162;7.560;2023-05-10T10:19:19;100548.97;;;15.48;61.57
64841;BME280;51307;52.162;7.560;2023-05-10T10:21:46;100546.94;;;15.57;61.74
64841;BME280;51307;52.162;7.560;2023-05-10T10:24:12;100555.50;;;15.32;61.33
64841;BME280;51307;52.162;7.560;2023-05-10T10:26:39;100547.50;;;15.17;61.66
64841;BME280;51307;52.162;7.560;2023-05-10T10:29:29;100546.25;;;15.41;61.32
64841;BME280;51307;52.162;7.560;2023-05-10T10:32:25;100541.53;;;15.57;61.52
64841;BME280;51307;52.162;7.560;2023-05-10T10:34:54;100550.00;;;15.47;62.31
64841;BME280;51307;52.162;7.560;2023-05-10T10:37:21;100548.16;;;15.54;61.43
64841;BME280;51307;52.162;7.560;2023-05-10T10:39:49;100548.56;;;15.51;60.08
64841;BME280;51307;52.162;7.560;2023-05-10T10:42:43;100540.34;;;15.66;60.72
64841;BME280;51307;52.162;7.560;2023-05-10T10:45:13;100541.09;;;15.88;60.10
64841;BME280;51307;52.162;7.560;2023-05-10T10:47:39;100542.13;;;15.87;60.88
64841;BME280;51307;52.162;7.560;2023-05-10T10:50:06;100548.03;;;16.18;59.91
64841;BME280;51307;52.162;7.560;2023-05-10T10:52:39;100547.13;;;15.97;59.71
64841;BME280;51307;52.162;7.560;2023-05-10T10:55:18;100545.47;;;16.03;59.41
64841;BME280;51307;52.162;7.560;2023-05-10T10:57:45;100542.00;;;16.16;58.82
64841;BME280;51307;52.162;7.560;2023-05-10T11:10:38;100543.03;;;16.21;58.45
64841;BME280;51307;52.162;7.560;2023-05-10T11:13:06;100543.28;;;16.40;57.68
64841;BME280;51307;52.162;7.560;2023-05-10T11:15:35;100536.84;;;16.34;56.90
64841;BME280;51307;52.162;7.560;2023-05-10T11:18:20;100549.25;;;16.08;58.15
64841;BME280;51307;52.162;7.560;2023-05-10T11:20:59;100551.38;;;16.26;57.46
64841;BME280;51307;52.162;7.560;2023-05-10T11:23:33;100544.69;;;16.16;57.90
64841;BME280;51307;52.162;7.560;2023-05-10T11:26:13;100548.41;;;16.14;56.51
64841;BME280;51307;52.162;7.560;2023-05-10T11:28:48;100549.44;;;16.13;56.16
64841;BME280;51307;52.162;7.560;2023-05-10T11:31:18;100558.84;;;16.24;56.87
64841;BME280;51307;52.162;7.560;2023-05-10T11:33:51;100545.78;;;16.41;56.92
64841;BME280;51307;52.162;7.560;2023-05-10T11:36:25;100557.66;;;16.54;56.20
64841;BME280;51307;52.162;7.560;2023-05-10T11:38:51;100552.94;;;16.76;56.44
64841;BME280;51307;52.162;7.560;2023-05-10T11:41:18;100551.66;;;16.58;56.49
64841;BME280;51307;52.162;7.560;2023-05-10T11:43:48;100555.72;;;16.21;57.08
64841;BME280;51307;52.162;7.560;2023-05-10T11:46:14;100559.59;;;15.98;57.10
64841;BME280;51307;52.162;7.560;2023-05-10T11:48:42;100568.34;;;16.13;57.21
64841;BME280;51307;52.162;7.560;2023-05-10T11:51:09;100575.59;;;16.06;57.54
64841;BME280;51307;52.162;7.560;2023-05-10T11:53:35;100570.09;;;16.41;57.28
64841;BME280;51307;52.162;7.560;2023-05-10T11:56:08;100568.91;;;16.64;56.52
64841;BME280;51307;52.162;7.560;2023-05-10T11:58:35;100566.00;;;16.59;56.24
64841;BME280;51307;52.162;7.560;2023-05-10T12:01:02;100560.16;;;16.55;57.80
64841;BME280;51307;52.162;7.560;2023-05-10T12:03:28;100560.00;;;16.70;56.50
64841;BME280;51307;52.162;7.560;2023-05-10T12:05:55;100568.50;;;16.67;55.73
64841;BME280;51307;52.162;7.560;2023-05-10T12:08:23;100574.34;;;16.84;55.44
64841;BME280;51307;52.162;7.560;2023-05-10T12:10:49;100569.34;;;16.81;56.33
64841;BME280;51307;52.162;7.560;2023-05-10T12:13:15;100569.34;;;16.61;56.31
64841;BME280;51307;52.162;7.560;2023-05-10T12:15:42;100575.16;;;16.85;55.54
64841;BME280;51307;52.162;7.560;2023-05-10T12:18:12;100585.13;;;16.71;55.62
64841;BME280;51307;52.162;7.560;2023-05-10T12:20:39;100569.34;;;17.14;55.01
64841;BME280;51307;52.162;7.560;2023-05-10T12:23:07;100581.81;;;16.89;52.92
64841;BME280;51307;52.162;7.560;2023-05-10T12:25:34;100577.66;;;17.13;52.83
64841;BME280;51307;52.162;7.560;2023-05-10T12:28:03;100581.19;;;17.13;53.19
64841;BME280;51307;52.162;7.560;2023-05-10T12:30:31;100586.59;;;17.13;52.84
64841;BME280;51307;52.162;7.560;2023-05-10T12:33:03;100582.81;;;17.48;53.51
64841;BME280;51307;52.162;7.560;2023-05-10T12:35:43;100584.50;;;17.16;54.63
64841;BME280;51307;52.162;7.560;2023-05-10T12:41:08;100586.38;;;17.49;53.69
64841;BME280;51307;52.162;7.560;2023-05-10T12:43:36;100584.09;;;17.32;53.08
64841;BME280;51307;52.162;7.560;2023-05-10T12:46:05;100584.13;;;17.39;54.21
64841;BME280;51307;52.162;7.560;2023-05-10T12:48:31;100585.34;;;17.23;54.34
64841;BME280;51307;52.162;7.560;2023-05-10T12:50:59;100601.16;;;17.19;51.75
64841;BME280;51307;52.162;7.560;2023-05-10T12:53:24;100598.22;;;16.87;52.75
64841;BME280;51307;52.162;7.560;2023-05-10T12:55:50;100603.63;;;16.87;54.13
64841;BME280;51307;52.162;7.560;2023-05-10T12:58:15;100599.69;;;17.03;53.97
64841;BME280;51307;52.162;7.560;2023-05-10T13:00:41;100603.44;;;17.16;54.22
64841;BME280;51307;52.162;7.560;2023-05-10T13:03:06;100598.03;;;17.09;53.58
64841;BME280;51307;52.162;7.560;2023-05-10T13:05:32;100604.69;;;17.06;52.82
64841;BME280;51307;52.162;7.560;2023-05-10T13:07:58;100609.03;;;17.14;53.00
64841;BME280;51307;52.162;7.560;2023-05-10T13:10:24;100606.56;;;16.99;53.28
64841;BME280;51307;52.162;7.560;2023-05-10T13:12:50;100613.41;;;17.15;53.46
64841;BME280;51307;52.162;7.560;2023-05-10T13:15:16;100612.59;;;17.41;53.96
64841;BME280;51307;52.162;7.560;2023-05-10T13:17:42;100615.69;;;16.91;54.08
64841;BME280;51307;52.162;7.560;2023-05-10T13:20:08;100617.59;;;17.18;53.29
64841;BME280;51307;52.162;7.560;2023-05-10T13:22:35;100608.84;;;16.95;51.80
64841;BME280;51307;52.162;7.560;2023-05-10T13:25:00;100615.09;;;17.23;50.85
64841;BME280;51307;52.162;7.560;2023-05-10T13:27:26;100615.50;;;17.13;51.74
64841;BME280;51307;52.162;7.560;2023-05-10T13:29:51;100607.59;;;17.18;50.98